PWSweather.com
Personal Weather Stations
Station Observations
PICKERING
North Yorkshire, PickeringGB

North YorkshirePickeringGB

Lat: 54.2494, Lon: -0.7725

Elevation: 192

Station Type: Oregon Scientific WMR100

http://www.yorkshirewalker.co.uk/weather/

High Low Average
Temperature 54.9°F12.7°C 36.3°F2.4°C 43.5°F6.4°C
Dew Point 51.8°F11.0°C 32.0°F0.0°C 40.7°F4.8°C
Winds 6.0 mph 9.7 kmh Calm Calm 1.0 mph SE1.6 kmh SE
Wind Gusts 10.1 mph16.3 kmh -- 2.0 mph3.2 kmh
Humidity 92% 84% 88%
Pressure 30.30 in1026.1 mb 30.15 in1021.0 mb -
Precipitation 0.06 in1.5 mm - -
Hour Temp Dew Point Humidity Winds Wind Gusts Pressure Precip Precip Rate Daily Precip Total
12:00 AM 36.3°F2.4°C 32.0°F0.0°C 84% Calm Calm -- 30.24 in1024.0 mb 0.00 in0.0 mm 0.00 in0.0 mm 0.00 in0.0 mm
12:05 AM 36.5°F2.5°C 33.8°F1.0°C 84% Calm Calm -- 30.24 in1024.0 mb 0.00 in0.0 mm 0.00 in0.0 mm 0.00 in0.0 mm
12:10 AM 36.7°F2.6°C 33.8°F1.0°C 84% Calm Calm -- 30.24 in1024.0 mb 0.00 in0.0 mm 0.00 in0.0 mm 0.00 in0.0 mm
12:15 AM 36.5°F2.5°C 33.8°F1.0°C 84% Calm Calm -- 30.24 in1024.0 mb 0.00 in0.0 mm 0.00 in0.0 mm 0.00 in0.0 mm
12:20 AM 36.3°F2.4°C 32.0°F0.0°C 84% Calm Calm -- 30.24 in1024.0 mb 0.00 in0.0 mm 0.00 in0.0 mm 0.00 in0.0 mm
12:25 AM 36.3°F2.4°C 32.0°F0.0°C 84% Calm Calm -- 30.24 in1024.0 mb 0.00 in0.0 mm 0.00 in0.0 mm 0.00 in0.0 mm
12:30 AM 36.3°F2.4°C 32.0°F0.0°C 84% Calm Calm -- 30.24 in1024.0 mb 0.00 in0.0 mm 0.00 in0.0 mm 0.00 in0.0 mm
12:35 AM 36.3°F2.4°C 32.0°F0.0°C 84% Calm Calm -- 30.24 in1024.0 mb 0.00 in0.0 mm 0.00 in0.0 mm 0.00 in0.0 mm
12:40 AM 36.5°F2.5°C 33.8°F1.0°C 84% 0.1 mph NE0.2 kmh NE 0.9 mph1.4 kmh 30.24 in1024.0 mb 0.00 in0.0 mm 0.00 in0.0 mm 0.00 in0.0 mm
12:45 AM 36.7°F2.6°C 33.8°F1.0°C 84% 0.1 mph NE0.2 kmh NE 0.9 mph1.4 kmh 30.24 in1024.0 mb 0.00 in0.0 mm 0.00 in0.0 mm 0.00 in0.0 mm
12:50 AM 36.7°F2.6°C 33.8°F1.0°C 84% 0.1 mph NE0.2 kmh NE 0.9 mph1.4 kmh 30.24 in1024.0 mb 0.00 in0.0 mm 0.00 in0.0 mm 0.00 in0.0 mm
12:55 AM 36.7°F2.6°C 33.8°F1.0°C 84% 0.3 mph N0.5 kmh N 1.6 mph2.6 kmh 30.24 in1024.0 mb 0.00 in0.0 mm 0.00 in0.0 mm 0.00 in0.0 mm
01:00 AM 36.9°F2.7°C 33.8°F1.0°C 84% 0.7 mph NE1.1 kmh NE 1.6 mph2.6 kmh 30.24 in1024.0 mb 0.00 in0.0 mm 0.00 in0.0 mm 0.00 in0.0 mm
01:05 AM 37.0°F2.8°C 33.8°F1.0°C 84% 0.8 mph NE1.3 kmh NE 1.3 mph2.1 kmh 30.24 in1024.0 mb 0.00 in0.0 mm 0.00 in0.0 mm 0.00 in0.0 mm
01:10 AM 37.0°F2.8°C 33.8°F1.0°C 84% 0.7 mph NE1.1 kmh NE 1.3 mph2.1 kmh 30.24 in1024.0 mb 0.00 in0.0 mm 0.00 in0.0 mm 0.00 in0.0 mm
01:15 AM 37.2°F2.9°C 33.8°F1.0°C 84% 0.9 mph NE1.4 kmh NE 3.1 mph5.0 kmh 30.24 in1024.0 mb 0.00 in0.0 mm 0.00 in0.0 mm 0.00 in0.0 mm
01:20 AM 37.2°F2.9°C 33.8°F1.0°C 85% 1.1 mph NE1.8 kmh NE 3.1 mph5.0 kmh 30.24 in1024.0 mb 0.00 in0.0 mm 0.00 in0.0 mm 0.00 in0.0 mm
01:25 AM 37.2°F2.9°C 33.8°F1.0°C 85% 0.8 mph N1.3 kmh N 1.3 mph2.1 kmh 30.24 in1024.0 mb 0.00 in0.0 mm 0.00 in0.0 mm 0.00 in0.0 mm
01:30 AM 37.2°F2.9°C 33.8°F1.0°C 84% 0.9 mph N1.4 kmh N 2.9 mph4.7 kmh 30.24 in1024.0 mb 0.00 in0.0 mm 0.00 in0.0 mm 0.00 in0.0 mm
01:35 AM 37.4°F3.0°C 33.8°F1.0°C 84% 1.0 mph NE1.6 kmh NE 2.9 mph4.7 kmh 30.24 in1024.0 mb 0.00 in0.0 mm 0.00 in0.0 mm 0.00 in0.0 mm
01:40 AM 37.6°F3.1°C 33.8°F1.0°C 84% 1.2 mph NE1.9 kmh NE 2.7 mph4.3 kmh 30.24 in1024.0 mb 0.00 in0.0 mm 0.00 in0.0 mm 0.00 in0.0 mm
01:45 AM 37.8°F3.2°C 33.8°F1.0°C 85% 1.0 mph NE1.6 kmh NE 2.7 mph4.3 kmh 30.24 in1024.0 mb 0.00 in0.0 mm 0.00 in0.0 mm 0.00 in0.0 mm
01:50 AM 37.8°F3.2°C 33.8°F1.0°C 85% 0.1 mph NE0.2 kmh NE 1.1 mph1.8 kmh 30.24 in1024.0 mb 0.00 in0.0 mm 0.00 in0.0 mm 0.00 in0.0 mm
01:55 AM 37.8°F3.2°C 33.8°F1.0°C 85% 0.1 mph NE0.2 kmh NE 0.9 mph1.4 kmh 30.24 in1024.0 mb 0.00 in0.0 mm 0.00 in0.0 mm 0.00 in0.0 mm
02:00 AM 37.9°F3.3°C 33.8°F1.0°C 85% 0.1 mph NE0.2 kmh NE 0.9 mph1.4 kmh 30.24 in1024.0 mb 0.00 in0.0 mm 0.00 in0.0 mm 0.00 in0.0 mm
02:05 AM 37.9°F3.3°C 33.8°F1.0°C 85% Calm Calm -- 30.24 in1024.0 mb 0.00 in0.0 mm 0.00 in0.0 mm 0.00 in0.0 mm
02:10 AM 38.1°F3.4°C 33.8°F1.0°C 85% Calm Calm -- 30.24 in1024.0 mb 0.00 in0.0 mm 0.00 in0.0 mm 0.00 in0.0 mm
02:15 AM 38.1°F3.4°C 33.8°F1.0°C 85% Calm Calm -- 30.24 in1024.0 mb 0.00 in0.0 mm 0.00 in0.0 mm 0.00 in0.0 mm
02:20 AM 38.1°F3.4°C 33.8°F1.0°C 85% Calm Calm -- 30.24 in1024.0 mb 0.00 in0.0 mm 0.00 in0.0 mm 0.00 in0.0 mm
02:25 AM 38.3°F3.5°C 35.6°F2.0°C 85% Calm Calm -- 30.24 in1024.0 mb 0.00 in0.0 mm 0.00 in0.0 mm 0.00 in0.0 mm
02:30 AM 38.3°F3.5°C 35.6°F2.0°C 85% 0.1 mph NE0.2 kmh NE 0.9 mph1.4 kmh 30.21 in1023.0 mb 0.00 in0.0 mm 0.00 in0.0 mm 0.00 in0.0 mm
02:35 AM 38.3°F3.5°C 35.6°F2.0°C 85% 0.3 mph ENE0.5 kmh ENE 0.9 mph1.4 kmh 30.21 in1023.0 mb 0.00 in0.0 mm 0.00 in0.0 mm 0.00 in0.0 mm
02:40 AM 38.5°F3.6°C 35.6°F2.0°C 85% 0.3 mph ENE0.5 kmh ENE 0.9 mph1.4 kmh 30.21 in1023.0 mb 0.00 in0.0 mm 0.00 in0.0 mm 0.00 in0.0 mm
02:45 AM 38.7°F3.7°C 35.6°F2.0°C 85% 0.1 mph E0.2 kmh E 0.9 mph1.4 kmh 30.21 in1023.0 mb 0.00 in0.0 mm 0.00 in0.0 mm 0.00 in0.0 mm
02:50 AM 38.7°F3.7°C 35.6°F2.0°C 85% Calm Calm -- 30.21 in1023.0 mb 0.00 in0.0 mm 0.00 in0.0 mm 0.00 in0.0 mm
02:55 AM 38.7°F3.7°C 35.6°F2.0°C 85% Calm Calm -- 30.21 in1023.0 mb 0.00 in0.0 mm 0.00 in0.0 mm 0.00 in0.0 mm
03:00 AM 38.7°F3.7°C 35.6°F2.0°C 85% Calm Calm -- 30.21 in1023.0 mb 0.00 in0.0 mm 0.00 in0.0 mm 0.00 in0.0 mm
03:05 AM 38.7°F3.7°C 35.6°F2.0°C 85% Calm Calm -- 30.21 in1023.0 mb 0.00 in0.0 mm 0.00 in0.0 mm 0.00 in0.0 mm
03:10 AM 38.8°F3.8°C 35.6°F2.0°C 86% Calm Calm -- 30.21 in1023.0 mb 0.00 in0.0 mm 0.00 in0.0 mm 0.00 in0.0 mm
03:15 AM 38.8°F3.8°C 35.6°F2.0°C 86% Calm Calm -- 30.21 in1023.0 mb 0.00 in0.0 mm 0.00 in0.0 mm 0.00 in0.0 mm
03:20 AM 38.8°F3.8°C 35.6°F2.0°C 86% Calm Calm -- 30.21 in1023.0 mb 0.00 in0.0 mm 0.00 in0.0 mm 0.00 in0.0 mm
03:25 AM 39.0°F3.9°C 35.6°F2.0°C 86% Calm Calm -- 30.21 in1023.0 mb 0.00 in0.0 mm 0.00 in0.0 mm 0.00 in0.0 mm
03:30 AM 39.2°F4.0°C 35.6°F2.0°C 86% Calm Calm -- 30.21 in1023.0 mb 0.00 in0.0 mm 0.00 in0.0 mm 0.00 in0.0 mm
03:35 AM 39.2°F4.0°C 35.6°F2.0°C 86% Calm Calm -- 30.21 in1023.0 mb 0.00 in0.0 mm 0.00 in0.0 mm 0.00 in0.0 mm
03:40 AM 39.2°F4.0°C 35.6°F2.0°C 86% Calm Calm -- 30.21 in1023.0 mb 0.00 in0.0 mm 0.00 in0.0 mm 0.00 in0.0 mm
03:45 AM 39.4°F4.1°C 35.6°F2.0°C 86% Calm Calm -- 30.21 in1023.0 mb 0.00 in0.0 mm 0.00 in0.0 mm 0.00 in0.0 mm
03:50 AM 39.4°F4.1°C 35.6°F2.0°C 86% Calm Calm -- 30.21 in1023.0 mb 0.00 in0.0 mm 0.00 in0.0 mm 0.00 in0.0 mm
03:55 AM 39.4°F4.1°C 35.6°F2.0°C 86% Calm Calm -- 30.21 in1023.0 mb 0.00 in0.0 mm 0.00 in0.0 mm 0.00 in0.0 mm
04:00 AM 39.6°F4.2°C 35.6°F2.0°C 86% Calm Calm -- 30.21 in1023.0 mb 0.00 in0.0 mm 0.00 in0.0 mm 0.00 in0.0 mm
04:05 AM 39.6°F4.2°C 37.4°F3.0°C 87% Calm Calm -- 30.21 in1023.0 mb 0.00 in0.0 mm 0.00 in0.0 mm 0.00 in0.0 mm
04:10 AM 39.7°F4.3°C 37.4°F3.0°C 87% Calm Calm -- 30.21 in1023.0 mb 0.00 in0.0 mm 0.00 in0.0 mm 0.00 in0.0 mm
04:15 AM 39.7°F4.3°C 37.4°F3.0°C 87% Calm Calm -- 30.21 in1023.0 mb 0.00 in0.0 mm 0.00 in0.0 mm 0.00 in0.0 mm
04:20 AM 39.7°F4.3°C 37.4°F3.0°C 87% Calm Calm -- 30.21 in1023.0 mb 0.00 in0.0 mm 0.00 in0.0 mm 0.00 in0.0 mm
04:25 AM 39.7°F4.3°C 37.4°F3.0°C 87% Calm Calm -- 30.21 in1023.0 mb 0.00 in0.0 mm 0.00 in0.0 mm 0.00 in0.0 mm
04:30 AM 39.7°F4.3°C 37.4°F3.0°C 87% Calm Calm -- 30.18 in1022.0 mb 0.06 in1.5 mm 0.72 in18.3 mm 0.06 in1.5 mm
04:35 AM 39.9°F4.4°C 37.4°F3.0°C 87% Calm Calm -- 30.18 in1022.0 mb 0.06 in1.5 mm 0.00 in0.0 mm 0.06 in1.5 mm
04:40 AM 39.9°F4.4°C 37.4°F3.0°C 87% Calm Calm -- 30.18 in1022.0 mb 0.06 in1.5 mm 0.00 in0.0 mm 0.06 in1.5 mm
04:45 AM 39.9°F4.4°C 37.4°F3.0°C 87% Calm Calm -- 30.18 in1022.0 mb 0.06 in1.5 mm 0.00 in0.0 mm 0.06 in1.5 mm
04:50 AM 40.1°F4.5°C 37.4°F3.0°C 87% Calm Calm -- 30.18 in1022.0 mb 0.06 in1.5 mm 0.00 in0.0 mm 0.06 in1.5 mm
04:55 AM 40.3°F4.6°C 37.4°F3.0°C 87% Calm Calm -- 30.18 in1022.0 mb 0.06 in1.5 mm 0.00 in0.0 mm 0.06 in1.5 mm
05:00 AM 40.3°F4.6°C 37.4°F3.0°C 87% Calm Calm -- 30.18 in1022.0 mb 0.06 in1.5 mm 0.00 in0.0 mm 0.06 in1.5 mm
05:05 AM 40.3°F4.6°C 37.4°F3.0°C 87% Calm Calm -- 30.18 in1022.0 mb 0.06 in1.5 mm 0.00 in0.0 mm 0.06 in1.5 mm
05:10 AM 40.5°F4.7°C 37.4°F3.0°C 87% Calm Calm -- 30.18 in1022.0 mb 0.06 in1.5 mm 0.00 in0.0 mm 0.06 in1.5 mm
05:15 AM 40.5°F4.7°C 37.4°F3.0°C 87% Calm Calm -- 30.18 in1022.0 mb 0.06 in1.5 mm 0.00 in0.0 mm 0.06 in1.5 mm
05:20 AM 40.6°F4.8°C 37.4°F3.0°C 88% Calm Calm -- 30.18 in1022.0 mb 0.06 in1.5 mm 0.00 in0.0 mm 0.06 in1.5 mm
05:25 AM 40.6°F4.8°C 37.4°F3.0°C 88% Calm Calm -- 30.18 in1022.0 mb 0.06 in1.5 mm 0.00 in0.0 mm 0.06 in1.5 mm
05:30 AM 40.6°F4.8°C 37.4°F3.0°C 88% Calm Calm -- 30.18 in1022.0 mb 0.00 in0.0 mm 0.00 in0.0 mm 0.06 in1.5 mm
05:35 AM 40.6°F4.8°C 37.4°F3.0°C 88% Calm Calm -- 30.18 in1022.0 mb 0.00 in0.0 mm 0.00 in0.0 mm 0.06 in1.5 mm
05:40 AM 40.8°F4.9°C 37.4°F3.0°C 88% 0.1 mph WSW0.2 kmh WSW 1.3 mph2.1 kmh 30.18 in1022.0 mb 0.00 in0.0 mm 0.00 in0.0 mm 0.06 in1.5 mm
05:45 AM 40.8°F4.9°C 37.4°F3.0°C 88% 0.5 mph WSW0.8 kmh WSW 1.3 mph2.1 kmh 30.15 in1021.0 mb 0.00 in0.0 mm 0.00 in0.0 mm 0.06 in1.5 mm
05:50 AM 40.8°F4.9°C 37.4°F3.0°C 88% 0.5 mph WSW0.8 kmh WSW 1.3 mph2.1 kmh 30.15 in1021.0 mb 0.00 in0.0 mm 0.00 in0.0 mm 0.06 in1.5 mm
05:55 AM 40.8°F4.9°C 37.4°F3.0°C 88% Calm Calm -- 30.15 in1021.0 mb 0.00 in0.0 mm 0.00 in0.0 mm 0.06 in1.5 mm
06:00 AM 41.0°F5.0°C 37.4°F3.0°C 88% Calm Calm -- 30.15 in1021.0 mb 0.00 in0.0 mm 0.00 in0.0 mm 0.06 in1.5 mm
06:05 AM 41.0°F5.0°C 37.4°F3.0°C 88% 0.2 mph NE0.3 kmh NE 1.3 mph2.1 kmh 30.15 in1021.0 mb 0.00 in0.0 mm 0.00 in0.0 mm 0.06 in1.5 mm
06:10 AM 41.0°F5.0°C 37.4°F3.0°C 88% 0.2 mph NE0.3 kmh NE 1.3 mph2.1 kmh 30.15 in1021.0 mb 0.00 in0.0 mm 0.00 in0.0 mm 0.06 in1.5 mm
06:15 AM 41.0°F5.0°C 37.4°F3.0°C 88% Calm Calm -- 30.15 in1021.0 mb 0.00 in0.0 mm 0.00 in0.0 mm 0.06 in1.5 mm
06:20 AM 41.0°F5.0°C 37.4°F3.0°C 88% Calm Calm -- 30.15 in1021.0 mb 0.00 in0.0 mm 0.00 in0.0 mm 0.06 in1.5 mm
06:25 AM 41.2°F5.1°C 37.4°F3.0°C 88% Calm Calm -- 30.15 in1021.0 mb 0.00 in0.0 mm 0.00 in0.0 mm 0.06 in1.5 mm
06:30 AM 41.2°F5.1°C 37.4°F3.0°C 88% Calm Calm -- 30.18 in1022.0 mb 0.00 in0.0 mm 0.00 in0.0 mm 0.06 in1.5 mm
06:35 AM 41.2°F5.1°C 37.4°F3.0°C 88% Calm Calm -- 30.18 in1022.0 mb 0.00 in0.0 mm 0.00 in0.0 mm 0.06 in1.5 mm
06:40 AM 41.2°F5.1°C 37.4°F3.0°C 88% 0.3 mph WNW0.5 kmh WNW 1.3 mph2.1 kmh 30.18 in1022.0 mb 0.00 in0.0 mm 0.00 in0.0 mm 0.06 in1.5 mm
06:45 AM 41.5°F5.3°C 39.2°F4.0°C 88% 0.7 mph W1.1 kmh W 1.6 mph2.6 kmh 30.15 in1021.0 mb 0.00 in0.0 mm 0.00 in0.0 mm 0.06 in1.5 mm
06:50 AM 41.7°F5.4°C 39.2°F4.0°C 88% 2.0 mph WSW3.2 kmh WSW 4.0 mph6.4 kmh 30.15 in1021.0 mb 0.00 in0.0 mm 0.00 in0.0 mm 0.06 in1.5 mm
06:55 AM 41.9°F5.5°C 39.2°F4.0°C 88% 3.0 mph WSW4.8 kmh WSW 4.3 mph6.9 kmh 30.15 in1021.0 mb 0.00 in0.0 mm 0.00 in0.0 mm 0.06 in1.5 mm
07:00 AM 42.1°F5.6°C 39.2°F4.0°C 88% 3.4 mph WSW5.5 kmh WSW 4.3 mph6.9 kmh 30.15 in1021.0 mb 0.00 in0.0 mm 0.00 in0.0 mm 0.06 in1.5 mm
07:05 AM 42.1°F5.6°C 39.2°F4.0°C 88% 3.2 mph WSW5.1 kmh WSW 4.3 mph6.9 kmh 30.15 in1021.0 mb 0.00 in0.0 mm 0.00 in0.0 mm 0.06 in1.5 mm
07:10 AM 42.1°F5.6°C 39.2°F4.0°C 88% 2.1 mph W3.4 kmh W 3.4 mph5.5 kmh 30.15 in1021.0 mb 0.00 in0.0 mm 0.00 in0.0 mm 0.06 in1.5 mm
07:15 AM 41.9°F5.5°C 39.2°F4.0°C 88% 1.4 mph W2.3 kmh W 2.7 mph4.3 kmh 30.18 in1022.0 mb 0.00 in0.0 mm 0.00 in0.0 mm 0.06 in1.5 mm
07:20 AM 42.1°F5.6°C 39.2°F4.0°C 88% 1.5 mph WSW2.4 kmh WSW 3.8 mph6.1 kmh 30.18 in1022.0 mb 0.00 in0.0 mm 0.00 in0.0 mm 0.06 in1.5 mm
07:25 AM 42.3°F5.7°C 39.2°F4.0°C 89% 2.7 mph WSW4.3 kmh WSW 4.0 mph6.4 kmh 30.18 in1022.0 mb 0.00 in0.0 mm 0.00 in0.0 mm 0.06 in1.5 mm
07:30 AM 42.3°F5.7°C 39.2°F4.0°C 89% 2.4 mph WSW3.9 kmh WSW 4.0 mph6.4 kmh 30.18 in1022.0 mb 0.00 in0.0 mm 0.00 in0.0 mm 0.06 in1.5 mm
07:35 AM 42.1°F5.6°C 39.2°F4.0°C 89% 1.5 mph WSW2.4 kmh WSW 2.2 mph3.5 kmh 30.18 in1022.0 mb 0.00 in0.0 mm 0.00 in0.0 mm 0.06 in1.5 mm
07:40 AM 41.9°F5.5°C 39.2°F4.0°C 89% 1.5 mph SW2.4 kmh SW 2.2 mph3.5 kmh 30.18 in1022.0 mb 0.00 in0.0 mm 0.00 in0.0 mm 0.06 in1.5 mm
07:45 AM 41.9°F5.5°C 39.2°F4.0°C 89% 1.9 mph SW3.1 kmh SW 3.1 mph5.0 kmh 30.15 in1021.0 mb 0.00 in0.0 mm 0.00 in0.0 mm 0.06 in1.5 mm
07:50 AM 41.9°F5.5°C 39.2°F4.0°C 89% 2.5 mph WSW4.0 kmh WSW 3.4 mph5.5 kmh 30.15 in1021.0 mb 0.00 in0.0 mm 0.00 in0.0 mm 0.06 in1.5 mm
07:55 AM 42.1°F5.6°C 39.2°F4.0°C 89% 2.5 mph WSW4.0 kmh WSW 3.4 mph5.5 kmh 30.15 in1021.0 mb 0.00 in0.0 mm 0.00 in0.0 mm 0.06 in1.5 mm
08:00 AM 42.3°F5.7°C 39.2°F4.0°C 89% 2.5 mph WSW4.0 kmh WSW 4.0 mph6.4 kmh 30.18 in1022.0 mb 0.00 in0.0 mm 0.00 in0.0 mm 0.06 in1.5 mm
08:05 AM 42.1°F5.6°C 39.2°F4.0°C 89% 2.2 mph WSW3.5 kmh WSW 4.0 mph6.4 kmh 30.18 in1022.0 mb 0.00 in0.0 mm 0.00 in0.0 mm 0.06 in1.5 mm
08:10 AM 42.1°F5.6°C 39.2°F4.0°C 89% 1.1 mph SW1.8 kmh SW 2.2 mph3.5 kmh 30.18 in1022.0 mb 0.00 in0.0 mm 0.00 in0.0 mm 0.06 in1.5 mm
08:15 AM 42.1°F5.6°C 39.2°F4.0°C 89% 0.6 mph WSW1.0 kmh WSW 2.0 mph3.2 kmh 30.18 in1022.0 mb 0.00 in0.0 mm 0.00 in0.0 mm 0.06 in1.5 mm
08:20 AM 42.1°F5.6°C 39.2°F4.0°C 89% 0.5 mph WSW0.8 kmh WSW 1.3 mph2.1 kmh 30.18 in1022.0 mb 0.00 in0.0 mm 0.00 in0.0 mm 0.06 in1.5 mm
08:25 AM 41.9°F5.5°C 39.2°F4.0°C 89% 0.6 mph W1.0 kmh W 2.5 mph4.0 kmh 30.18 in1022.0 mb 0.00 in0.0 mm 0.00 in0.0 mm 0.06 in1.5 mm
08:30 AM 41.9°F5.5°C 39.2°F4.0°C 89% 1.0 mph E1.6 kmh E 2.5 mph4.0 kmh 30.18 in1022.0 mb 0.00 in0.0 mm 0.00 in0.0 mm 0.06 in1.5 mm
08:35 AM 42.1°F5.6°C 39.2°F4.0°C 89% 0.6 mph ESE1.0 kmh ESE 2.5 mph4.0 kmh 30.18 in1022.0 mb 0.00 in0.0 mm 0.00 in0.0 mm 0.06 in1.5 mm
08:40 AM 42.1°F5.6°C 39.2°F4.0°C 89% 0.1 mph S0.2 kmh S 0.9 mph1.4 kmh 30.18 in1022.0 mb 0.00 in0.0 mm 0.00 in0.0 mm 0.06 in1.5 mm
08:45 AM 42.1°F5.6°C 39.2°F4.0°C 89% 0.2 mph ENE0.3 kmh ENE 1.6 mph2.6 kmh 30.18 in1022.0 mb 0.00 in0.0 mm 0.00 in0.0 mm 0.06 in1.5 mm
08:50 AM 41.9°F5.5°C 39.2°F4.0°C 89% 0.4 mph ENE0.6 kmh ENE 1.6 mph2.6 kmh 30.18 in1022.0 mb 0.00 in0.0 mm 0.00 in0.0 mm 0.06 in1.5 mm
08:55 AM 41.9°F5.5°C 39.2°F4.0°C 89% 0.3 mph E0.5 kmh E 1.1 mph1.8 kmh 30.18 in1022.0 mb 0.00 in0.0 mm 0.00 in0.0 mm 0.06 in1.5 mm
09:00 AM 41.9°F5.5°C 39.2°F4.0°C 89% 0.5 mph E0.8 kmh E 1.6 mph2.6 kmh 30.18 in1022.0 mb 0.00 in0.0 mm 0.00 in0.0 mm 0.06 in1.5 mm
09:05 AM 41.9°F5.5°C 39.2°F4.0°C 90% 0.3 mph E0.5 kmh E 1.6 mph2.6 kmh 30.18 in1022.0 mb 0.00 in0.0 mm 0.00 in0.0 mm 0.06 in1.5 mm
09:10 AM 42.1°F5.6°C 39.2°F4.0°C 90% 0.1 mph E0.2 kmh E 1.1 mph1.8 kmh 30.18 in1022.0 mb 0.00 in0.0 mm 0.00 in0.0 mm 0.06 in1.5 mm
09:15 AM 42.1°F5.6°C 39.2°F4.0°C 90% 0.1 mph E0.2 kmh E 1.1 mph1.8 kmh 30.18 in1022.0 mb 0.00 in0.0 mm 0.00 in0.0 mm 0.06 in1.5 mm
09:20 AM 42.1°F5.6°C 39.2°F4.0°C 90% 0.1 mph E0.2 kmh E 1.3 mph2.1 kmh 30.18 in1022.0 mb 0.00 in0.0 mm 0.00 in0.0 mm 0.06 in1.5 mm
09:25 AM 42.3°F5.7°C 39.2°F4.0°C 90% 0.5 mph E0.8 kmh E 2.0 mph3.2 kmh 30.18 in1022.0 mb 0.00 in0.0 mm 0.00 in0.0 mm 0.06 in1.5 mm
09:30 AM 42.4°F5.8°C 41.0°F5.0°C 90% 0.7 mph ESE1.1 kmh ESE 2.0 mph3.2 kmh 30.18 in1022.0 mb 0.00 in0.0 mm 0.00 in0.0 mm 0.06 in1.5 mm
09:35 AM 42.4°F5.8°C 41.0°F5.0°C 90% 0.5 mph SSE0.8 kmh SSE 0.9 mph1.4 kmh 30.18 in1022.0 mb 0.00 in0.0 mm 0.00 in0.0 mm 0.06 in1.5 mm
09:40 AM 42.4°F5.8°C 41.0°F5.0°C 90% 0.3 mph S0.5 kmh S 1.3 mph2.1 kmh 30.18 in1022.0 mb 0.00 in0.0 mm 0.00 in0.0 mm 0.06 in1.5 mm
09:45 AM 42.6°F5.9°C 41.0°F5.0°C 90% 0.2 mph S0.3 kmh S 1.3 mph2.1 kmh 30.18 in1022.0 mb 0.00 in0.0 mm 0.00 in0.0 mm 0.06 in1.5 mm
09:50 AM 42.3°F5.7°C 39.2°F4.0°C 90% 0.1 mph S0.2 kmh S 0.9 mph1.4 kmh 30.18 in1022.0 mb 0.00 in0.0 mm 0.00 in0.0 mm 0.06 in1.5 mm
09:55 AM 42.3°F5.7°C 39.2°F4.0°C 90% Calm Calm -- 30.18 in1022.0 mb 0.00 in0.0 mm 0.00 in0.0 mm 0.06 in1.5 mm
10:00 AM 42.1°F5.6°C 39.2°F4.0°C 90% Calm Calm -- 30.18 in1022.0 mb 0.00 in0.0 mm 0.00 in0.0 mm 0.06 in1.5 mm
10:05 AM 41.9°F5.5°C 39.2°F4.0°C 90% Calm Calm -- 30.21 in1023.0 mb 0.00 in0.0 mm 0.00 in0.0 mm 0.06 in1.5 mm
10:10 AM 41.9°F5.5°C 39.2°F4.0°C 90% 0.1 mph SSW0.2 kmh SSW 0.9 mph1.4 kmh 30.21 in1023.0 mb 0.00 in0.0 mm 0.00 in0.0 mm 0.06 in1.5 mm
10:15 AM 42.1°F5.6°C 39.2°F4.0°C 90% 0.1 mph SSW0.2 kmh SSW 0.9 mph1.4 kmh 30.21 in1023.0 mb 0.00 in0.0 mm 0.00 in0.0 mm 0.06 in1.5 mm
10:20 AM 42.3°F5.7°C 39.2°F4.0°C 90% 0.1 mph SSW0.2 kmh SSW 0.9 mph1.4 kmh 30.21 in1023.0 mb 0.00 in0.0 mm 0.00 in0.0 mm 0.06 in1.5 mm
10:25 AM 43.0°F6.1°C 41.0°F5.0°C 90% Calm Calm -- 30.21 in1023.0 mb 0.00 in0.0 mm 0.00 in0.0 mm 0.06 in1.5 mm
10:30 AM 43.3°F6.3°C 41.0°F5.0°C 90% 0.1 mph WSW0.2 kmh WSW 0.9 mph1.4 kmh 30.21 in1023.0 mb 0.00 in0.0 mm 0.00 in0.0 mm 0.06 in1.5 mm
10:35 AM 43.9°F6.6°C 42.8°F6.0°C 91% 0.6 mph WSW1.0 kmh WSW 2.0 mph3.2 kmh 30.18 in1022.0 mb 0.00 in0.0 mm 0.00 in0.0 mm 0.06 in1.5 mm
10:40 AM 44.2°F6.8°C 42.8°F6.0°C 91% 0.8 mph WSW1.3 kmh WSW 2.0 mph3.2 kmh 30.18 in1022.0 mb 0.00 in0.0 mm 0.00 in0.0 mm 0.06 in1.5 mm
10:45 AM 44.4°F6.9°C 42.8°F6.0°C 91% 1.0 mph WSW1.6 kmh WSW 2.0 mph3.2 kmh 30.18 in1022.0 mb 0.00 in0.0 mm 0.00 in0.0 mm 0.06 in1.5 mm
10:50 AM 44.6°F7.0°C 42.8°F6.0°C 91% 1.2 mph SW1.9 kmh SW 1.6 mph2.6 kmh 30.21 in1023.0 mb 0.00 in0.0 mm 0.00 in0.0 mm 0.06 in1.5 mm
10:55 AM 44.8°F7.1°C 42.8°F6.0°C 91% 1.3 mph SW2.1 kmh SW 2.0 mph3.2 kmh 30.21 in1023.0 mb 0.00 in0.0 mm 0.00 in0.0 mm 0.06 in1.5 mm
11:00 AM 45.0°F7.2°C 42.8°F6.0°C 91% 0.9 mph SSW1.4 kmh SSW 2.0 mph3.2 kmh 30.21 in1023.0 mb 0.00 in0.0 mm 0.00 in0.0 mm 0.06 in1.5 mm
11:05 AM 45.1°F7.3°C 42.8°F6.0°C 91% 0.3 mph SSW0.5 kmh SSW 0.9 mph1.4 kmh 30.18 in1022.0 mb 0.00 in0.0 mm 0.00 in0.0 mm 0.06 in1.5 mm
11:10 AM 45.3°F7.4°C 42.8°F6.0°C 91% Calm Calm -- 30.18 in1022.0 mb 0.00 in0.0 mm 0.00 in0.0 mm 0.06 in1.5 mm
11:15 AM 45.5°F7.5°C 42.8°F6.0°C 91% Calm Calm -- 30.18 in1022.0 mb 0.00 in0.0 mm 0.00 in0.0 mm 0.06 in1.5 mm
11:20 AM 45.7°F7.6°C 42.8°F6.0°C 91% 0.1 mph SSW0.2 kmh SSW 0.9 mph1.4 kmh 30.18 in1022.0 mb 0.00 in0.0 mm 0.00 in0.0 mm 0.06 in1.5 mm
11:25 AM 45.9°F7.7°C 42.8°F6.0°C 92% 0.2 mph SSE0.3 kmh SSE 0.9 mph1.4 kmh 30.18 in1022.0 mb 0.00 in0.0 mm 0.00 in0.0 mm 0.06 in1.5 mm
11:30 AM 46.0°F7.8°C 42.8°F6.0°C 92% 0.8 mph E1.3 kmh E 2.0 mph3.2 kmh 30.18 in1022.0 mb 0.00 in0.0 mm 0.00 in0.0 mm 0.06 in1.5 mm
11:35 AM 46.2°F7.9°C 44.6°F7.0°C 92% 1.2 mph E1.9 kmh E 2.9 mph4.7 kmh 30.21 in1023.0 mb 0.00 in0.0 mm 0.00 in0.0 mm 0.06 in1.5 mm
11:40 AM 46.4°F8.0°C 44.6°F7.0°C 92% 1.3 mph E2.1 kmh E 2.9 mph4.7 kmh 30.21 in1023.0 mb 0.00 in0.0 mm 0.00 in0.0 mm 0.06 in1.5 mm
11:45 AM 46.6°F8.1°C 44.6°F7.0°C 92% 0.9 mph E1.4 kmh E 2.9 mph4.7 kmh 30.21 in1023.0 mb 0.00 in0.0 mm 0.00 in0.0 mm 0.06 in1.5 mm
11:50 AM 46.8°F8.2°C 44.6°F7.0°C 92% 0.4 mph E0.6 kmh E 1.3 mph2.1 kmh 30.18 in1022.0 mb 0.00 in0.0 mm 0.00 in0.0 mm 0.06 in1.5 mm
11:55 AM 47.1°F8.4°C 44.6°F7.0°C 92% 0.7 mph SSW1.1 kmh SSW 2.7 mph4.3 kmh 30.18 in1022.0 mb 0.00 in0.0 mm 0.00 in0.0 mm 0.06 in1.5 mm
12:00 PM 47.3°F8.5°C 46.4°F8.0°C 92% 1.3 mph SW2.1 kmh SW 2.7 mph4.3 kmh 30.18 in1022.0 mb 0.00 in0.0 mm 0.00 in0.0 mm 0.06 in1.5 mm
12:05 PM 48.0°F8.9°C 46.4°F8.0°C 92% 1.8 mph WSW2.9 kmh WSW 2.7 mph4.3 kmh 30.18 in1022.0 mb 0.00 in0.0 mm 0.00 in0.0 mm 0.06 in1.5 mm
12:10 PM 48.0°F8.9°C 46.4°F8.0°C 92% 2.5 mph WSW4.0 kmh WSW 3.4 mph5.5 kmh 30.18 in1022.0 mb 0.00 in0.0 mm 0.00 in0.0 mm 0.06 in1.5 mm
12:15 PM 48.6°F9.2°C 46.4°F8.0°C 92% 1.8 mph WSW2.9 kmh WSW 3.4 mph5.5 kmh 30.18 in1022.0 mb 0.00 in0.0 mm 0.00 in0.0 mm 0.06 in1.5 mm
12:20 PM 49.6°F9.8°C 48.2°F9.0°C 92% 1.5 mph SW2.4 kmh SW 3.4 mph5.5 kmh 30.18 in1022.0 mb 0.00 in0.0 mm 0.00 in0.0 mm 0.06 in1.5 mm
12:25 PM 50.0°F10.0°C 48.2°F9.0°C 92% 2.1 mph WSW3.4 kmh WSW 3.6 mph5.8 kmh 30.18 in1022.0 mb 0.00 in0.0 mm 0.00 in0.0 mm 0.06 in1.5 mm
12:30 PM 50.5°F10.3°C 48.2°F9.0°C 92% 1.8 mph WSW2.9 kmh WSW 3.6 mph5.8 kmh 30.18 in1022.0 mb 0.00 in0.0 mm 0.00 in0.0 mm 0.06 in1.5 mm
12:35 PM 51.6°F10.9°C 50.0°F10.0°C 92% 1.5 mph SW2.4 kmh SW 2.5 mph4.0 kmh 30.18 in1022.0 mb 0.00 in0.0 mm 0.00 in0.0 mm 0.06 in1.5 mm
12:40 PM 52.0°F11.1°C 50.0°F10.0°C 92% 1.3 mph SW2.1 kmh SW 2.5 mph4.0 kmh 30.18 in1022.0 mb 0.00 in0.0 mm 0.00 in0.0 mm 0.06 in1.5 mm
12:45 PM 52.7°F11.5°C 50.0°F10.0°C 92% 1.2 mph SSW1.9 kmh SSW 2.5 mph4.0 kmh 30.18 in1022.0 mb 0.00 in0.0 mm 0.00 in0.0 mm 0.06 in1.5 mm
12:50 PM 53.2°F11.8°C 50.0°F10.0°C 91% 1.2 mph SW1.9 kmh SW 3.1 mph5.0 kmh 30.18 in1022.0 mb 0.00 in0.0 mm 0.00 in0.0 mm 0.06 in1.5 mm
12:55 PM 54.5°F12.5°C 51.8°F11.0°C 90% 1.0 mph WSW1.6 kmh WSW 3.1 mph5.0 kmh 30.18 in1022.0 mb 0.00 in0.0 mm 0.00 in0.0 mm 0.06 in1.5 mm
01:00 PM 54.9°F12.7°C 51.8°F11.0°C 90% 1.1 mph W1.8 kmh W 3.1 mph5.0 kmh 30.18 in1022.0 mb 0.00 in0.0 mm 0.00 in0.0 mm 0.06 in1.5 mm
01:05 PM 54.9°F12.7°C 51.8°F11.0°C 89% 1.3 mph W2.1 kmh W 3.4 mph5.5 kmh 30.18 in1022.0 mb 0.00 in0.0 mm 0.00 in0.0 mm 0.06 in1.5 mm
01:10 PM 54.3°F12.4°C 51.8°F11.0°C 88% 2.4 mph W3.9 kmh W 6.5 mph10.5 kmh 30.18 in1022.0 mb 0.00 in0.0 mm 0.00 in0.0 mm 0.06 in1.5 mm
01:15 PM 53.4°F11.9°C 50.0°F10.0°C 89% 3.6 mph W5.8 kmh W 6.5 mph10.5 kmh 30.18 in1022.0 mb 0.00 in0.0 mm 0.00 in0.0 mm 0.06 in1.5 mm
01:20 PM 53.1°F11.7°C 50.0°F10.0°C 89% 3.3 mph W5.3 kmh W 6.5 mph10.5 kmh 30.18 in1022.0 mb 0.00 in0.0 mm 0.00 in0.0 mm 0.06 in1.5 mm
01:25 PM 52.7°F11.5°C 50.0°F10.0°C 89% 4.0 mph WSW6.4 kmh WSW 10.1 mph16.3 kmh 30.18 in1022.0 mb 0.00 in0.0 mm 0.00 in0.0 mm 0.06 in1.5 mm
01:30 PM 52.9°F11.6°C 50.0°F10.0°C 88% 6.0 mph WSW9.7 kmh WSW 10.1 mph16.3 kmh 30.18 in1022.0 mb 0.00 in0.0 mm 0.00 in0.0 mm 0.06 in1.5 mm
01:35 PM 52.7°F11.5°C 50.0°F10.0°C 88% 4.8 mph WSW7.7 kmh WSW 8.5 mph13.7 kmh 30.18 in1022.0 mb 0.00 in0.0 mm 0.00 in0.0 mm 0.06 in1.5 mm
01:40 PM 52.3°F11.3°C 48.2°F9.0°C 88% 3.4 mph WSW5.5 kmh WSW 7.6 mph12.2 kmh 30.18 in1022.0 mb 0.00 in0.0 mm 0.00 in0.0 mm 0.06 in1.5 mm
01:45 PM 52.3°F11.3°C 48.2°F9.0°C 88% 3.7 mph WSW6.0 kmh WSW 5.6 mph9.0 kmh 30.18 in1022.0 mb 0.00 in0.0 mm 0.00 in0.0 mm 0.06 in1.5 mm
01:50 PM 52.2°F11.2°C 48.2°F9.0°C 88% 3.7 mph WSW6.0 kmh WSW 5.6 mph9.0 kmh 30.18 in1022.0 mb 0.00 in0.0 mm 0.00 in0.0 mm 0.06 in1.5 mm
01:55 PM 52.2°F11.2°C 48.2°F9.0°C 88% 3.8 mph WSW6.1 kmh WSW 6.0 mph9.7 kmh 30.18 in1022.0 mb 0.00 in0.0 mm 0.00 in0.0 mm 0.06 in1.5 mm
02:00 PM 52.2°F11.2°C 48.2°F9.0°C 88% 3.1 mph WSW5.0 kmh WSW 6.0 mph9.7 kmh 30.18 in1022.0 mb 0.00 in0.0 mm 0.00 in0.0 mm 0.06 in1.5 mm
02:05 PM 52.2°F11.2°C 48.2°F9.0°C 88% 2.5 mph WSW4.0 kmh WSW 4.7 mph7.6 kmh 30.18 in1022.0 mb 0.00 in0.0 mm 0.00 in0.0 mm 0.06 in1.5 mm
02:10 PM 52.2°F11.2°C 48.2°F9.0°C 88% 3.4 mph WSW5.5 kmh WSW 6.3 mph10.1 kmh 30.18 in1022.0 mb 0.00 in0.0 mm 0.00 in0.0 mm 0.06 in1.5 mm
02:15 PM 52.2°F11.2°C 48.2°F9.0°C 88% 4.6 mph WSW7.4 kmh WSW 7.6 mph12.2 kmh 30.18 in1022.0 mb 0.00 in0.0 mm 0.00 in0.0 mm 0.06 in1.5 mm
02:20 PM 52.2°F11.2°C 48.2°F9.0°C 88% 4.6 mph WSW7.4 kmh WSW 7.6 mph12.2 kmh 30.18 in1022.0 mb 0.00 in0.0 mm 0.00 in0.0 mm 0.06 in1.5 mm
02:25 PM 52.2°F11.2°C 48.2°F9.0°C 88% 4.8 mph W7.7 kmh W 6.5 mph10.5 kmh 30.18 in1022.0 mb 0.00 in0.0 mm 0.00 in0.0 mm 0.06 in1.5 mm
02:30 PM 52.0°F11.1°C 48.2°F9.0°C 87% 3.9 mph WSW6.3 kmh WSW 6.0 mph9.7 kmh 30.18 in1022.0 mb 0.00 in0.0 mm 0.00 in0.0 mm 0.06 in1.5 mm
02:35 PM 52.0°F11.1°C 48.2°F9.0°C 87% 3.1 mph WSW5.0 kmh WSW 7.2 mph11.6 kmh 30.21 in1023.0 mb 0.00 in0.0 mm 0.00 in0.0 mm 0.06 in1.5 mm
02:40 PM 52.0°F11.1°C 48.2°F9.0°C 87% 4.0 mph WSW6.4 kmh WSW 7.2 mph11.6 kmh 30.21 in1023.0 mb 0.00 in0.0 mm 0.00 in0.0 mm 0.06 in1.5 mm
02:45 PM 52.0°F11.1°C 48.2°F9.0°C 87% 4.3 mph WSW6.9 kmh WSW 8.7 mph14.0 kmh 30.21 in1023.0 mb 0.00 in0.0 mm 0.00 in0.0 mm 0.06 in1.5 mm
02:50 PM 51.8°F11.0°C 48.2°F9.0°C 87% 4.4 mph WSW7.1 kmh WSW 8.7 mph14.0 kmh 30.21 in1023.0 mb 0.00 in0.0 mm 0.00 in0.0 mm 0.06 in1.5 mm
02:55 PM 51.8°F11.0°C 48.2°F9.0°C 87% 4.8 mph WSW7.7 kmh WSW 7.6 mph12.2 kmh 30.21 in1023.0 mb 0.00 in0.0 mm 0.00 in0.0 mm 0.06 in1.5 mm
03:00 PM 51.6°F10.9°C 48.2°F9.0°C 87% 5.8 mph W9.3 kmh W 8.1 mph13.0 kmh 30.21 in1023.0 mb 0.00 in0.0 mm 0.00 in0.0 mm 0.06 in1.5 mm
03:05 PM 51.6°F10.9°C 48.2°F9.0°C 86% 5.7 mph WSW9.2 kmh WSW 8.1 mph13.0 kmh 30.18 in1022.0 mb 0.00 in0.0 mm 0.00 in0.0 mm 0.06 in1.5 mm
03:10 PM 51.3°F10.7°C 48.2°F9.0°C 86% 4.8 mph WSW7.7 kmh WSW 8.1 mph13.0 kmh 30.18 in1022.0 mb 0.00 in0.0 mm 0.00 in0.0 mm 0.06 in1.5 mm
03:15 PM 51.3°F10.7°C 48.2°F9.0°C 86% 5.3 mph WSW8.5 kmh WSW 8.5 mph13.7 kmh 30.18 in1022.0 mb 0.00 in0.0 mm 0.00 in0.0 mm 0.06 in1.5 mm
03:20 PM 51.1°F10.6°C 48.2°F9.0°C 86% 5.6 mph WSW9.0 kmh WSW 8.5 mph13.7 kmh 30.21 in1023.0 mb 0.00 in0.0 mm 0.00 in0.0 mm 0.06 in1.5 mm
03:25 PM 50.9°F10.5°C 48.2°F9.0°C 86% 5.5 mph WSW8.9 kmh WSW 7.6 mph12.2 kmh 30.21 in1023.0 mb 0.00 in0.0 mm 0.00 in0.0 mm 0.06 in1.5 mm
03:30 PM 50.7°F10.4°C 46.4°F8.0°C 86% 5.0 mph SW8.0 kmh SW 7.6 mph12.2 kmh 30.21 in1023.0 mb 0.00 in0.0 mm 0.00 in0.0 mm 0.06 in1.5 mm
03:35 PM 50.7°F10.4°C 46.4°F8.0°C 86% 4.5 mph WSW7.2 kmh WSW 8.5 mph13.7 kmh 30.21 in1023.0 mb 0.00 in0.0 mm 0.00 in0.0 mm 0.06 in1.5 mm
03:40 PM 50.4°F10.2°C 46.4°F8.0°C 86% 4.4 mph WSW7.1 kmh WSW 8.5 mph13.7 kmh 30.21 in1023.0 mb 0.00 in0.0 mm 0.00 in0.0 mm 0.06 in1.5 mm
03:45 PM 50.0°F10.0°C 46.4°F8.0°C 85% 3.5 mph WSW5.6 kmh WSW 4.9 mph7.9 kmh 30.21 in1023.0 mb 0.00 in0.0 mm 0.00 in0.0 mm 0.06 in1.5 mm
03:50 PM 50.0°F10.0°C 46.4°F8.0°C 86% 3.3 mph WSW5.3 kmh WSW 4.9 mph7.9 kmh 30.21 in1023.0 mb 0.00 in0.0 mm 0.00 in0.0 mm 0.06 in1.5 mm
03:55 PM 49.8°F9.9°C 46.4°F8.0°C 86% 2.4 mph WSW3.9 kmh WSW 4.7 mph7.6 kmh 30.21 in1023.0 mb 0.00 in0.0 mm 0.00 in0.0 mm 0.06 in1.5 mm
04:00 PM 49.6°F9.8°C 46.4°F8.0°C 86% 0.8 mph WSW1.3 kmh WSW 3.4 mph5.5 kmh 30.21 in1023.0 mb 0.00 in0.0 mm 0.00 in0.0 mm 0.06 in1.5 mm
04:05 PM 49.1°F9.5°C 46.4°F8.0°C 86% 0.1 mph E0.2 kmh E 0.9 mph1.4 kmh 30.21 in1023.0 mb 0.00 in0.0 mm 0.00 in0.0 mm 0.06 in1.5 mm
04:10 PM 48.7°F9.3°C 44.6°F7.0°C 86% 0.1 mph E0.2 kmh E 0.9 mph1.4 kmh 30.21 in1023.0 mb 0.00 in0.0 mm 0.00 in0.0 mm 0.06 in1.5 mm
04:15 PM 48.4°F9.1°C 44.6°F7.0°C 86% 0.1 mph ESE0.2 kmh ESE 0.9 mph1.4 kmh 30.21 in1023.0 mb 0.00 in0.0 mm 0.00 in0.0 mm 0.06 in1.5 mm
04:20 PM 48.4°F9.1°C 44.6°F7.0°C 87% 0.1 mph SSE0.2 kmh SSE 0.9 mph1.4 kmh 30.24 in1024.0 mb 0.00 in0.0 mm 0.00 in0.0 mm 0.06 in1.5 mm
04:25 PM 48.0°F8.9°C 44.6°F7.0°C 87% 0.4 mph SE0.6 kmh SE 1.3 mph2.1 kmh 30.24 in1024.0 mb 0.00 in0.0 mm 0.00 in0.0 mm 0.06 in1.5 mm
04:30 PM 47.5°F8.6°C 44.6°F7.0°C 87% 1.2 mph E1.9 kmh E 3.4 mph5.5 kmh 30.24 in1024.0 mb 0.00 in0.0 mm 0.00 in0.0 mm 0.06 in1.5 mm
04:35 PM 47.3°F8.5°C 44.6°F7.0°C 87% 1.6 mph E2.6 kmh E 3.4 mph5.5 kmh 30.24 in1024.0 mb 0.00 in0.0 mm 0.00 in0.0 mm 0.06 in1.5 mm
04:40 PM 47.3°F8.5°C 44.6°F7.0°C 87% 1.2 mph ESE1.9 kmh ESE 3.1 mph5.0 kmh 30.24 in1024.0 mb 0.00 in0.0 mm 0.00 in0.0 mm 0.06 in1.5 mm
04:45 PM 47.5°F8.6°C 44.6°F7.0°C 88% 1.1 mph S1.8 kmh S 3.1 mph5.0 kmh 30.24 in1024.0 mb 0.00 in0.0 mm 0.00 in0.0 mm 0.06 in1.5 mm
04:50 PM 47.7°F8.7°C 44.6°F7.0°C 88% 1.4 mph SSW2.3 kmh SSW 2.9 mph4.7 kmh 30.21 in1023.0 mb 0.00 in0.0 mm 0.00 in0.0 mm 0.06 in1.5 mm
04:55 PM 46.9°F8.3°C 44.6°F7.0°C 87% 1.2 mph SW1.9 kmh SW 2.5 mph4.0 kmh 30.21 in1023.0 mb 0.00 in0.0 mm 0.00 in0.0 mm 0.06 in1.5 mm
05:00 PM 46.8°F8.2°C 42.8°F6.0°C 87% 0.7 mph WSW1.1 kmh WSW 2.2 mph3.5 kmh 30.21 in1023.0 mb 0.00 in0.0 mm 0.00 in0.0 mm 0.06 in1.5 mm
05:05 PM 46.6°F8.1°C 42.8°F6.0°C 88% 0.3 mph NNW0.5 kmh NNW 2.2 mph3.5 kmh 30.24 in1024.0 mb 0.00 in0.0 mm 0.00 in0.0 mm 0.06 in1.5 mm
05:10 PM 46.2°F7.9°C 42.8°F6.0°C 88% 0.2 mph SSW0.3 kmh SSW 1.1 mph1.8 kmh 30.24 in1024.0 mb 0.00 in0.0 mm 0.00 in0.0 mm 0.06 in1.5 mm
05:15 PM 45.9°F7.7°C 42.8°F6.0°C 88% 0.6 mph SW1.0 kmh SW 2.2 mph3.5 kmh 30.24 in1024.0 mb 0.00 in0.0 mm 0.00 in0.0 mm 0.06 in1.5 mm
05:20 PM 45.7°F7.6°C 42.8°F6.0°C 88% 0.7 mph SW1.1 kmh SW 2.2 mph3.5 kmh 30.21 in1023.0 mb 0.00 in0.0 mm 0.00 in0.0 mm 0.06 in1.5 mm
05:25 PM 45.5°F7.5°C 42.8°F6.0°C 88% 1.1 mph WSW1.8 kmh WSW 2.5 mph4.0 kmh 30.21 in1023.0 mb 0.00 in0.0 mm 0.00 in0.0 mm 0.06 in1.5 mm
05:30 PM 45.1°F7.3°C 42.8°F6.0°C 88% 1.4 mph WSW2.3 kmh WSW 2.5 mph4.0 kmh 30.21 in1023.0 mb 0.00 in0.0 mm 0.00 in0.0 mm 0.06 in1.5 mm
05:35 PM 45.1°F7.3°C 42.8°F6.0°C 88% 0.9 mph WSW1.4 kmh WSW 2.5 mph4.0 kmh 30.24 in1024.0 mb 0.00 in0.0 mm 0.00 in0.0 mm 0.06 in1.5 mm
05:40 PM 44.8°F7.1°C 41.0°F5.0°C 88% 0.6 mph W1.0 kmh W 3.1 mph5.0 kmh 30.24 in1024.0 mb 0.00 in0.0 mm 0.00 in0.0 mm 0.06 in1.5 mm
05:45 PM 45.3°F7.4°C 42.8°F6.0°C 88% 2.5 mph W4.0 kmh W 5.6 mph9.0 kmh 30.24 in1024.0 mb 0.00 in0.0 mm 0.00 in0.0 mm 0.06 in1.5 mm
05:50 PM 45.3°F7.4°C 42.8°F6.0°C 88% 3.1 mph W5.0 kmh W 5.6 mph9.0 kmh 30.24 in1024.0 mb 0.00 in0.0 mm 0.00 in0.0 mm 0.06 in1.5 mm
05:55 PM 45.3°F7.4°C 42.8°F6.0°C 88% 2.6 mph WSW4.2 kmh WSW 4.0 mph6.4 kmh 30.24 in1024.0 mb 0.00 in0.0 mm 0.00 in0.0 mm 0.06 in1.5 mm
06:00 PM 45.5°F7.5°C 42.8°F6.0°C 88% 2.6 mph WSW4.2 kmh WSW 4.0 mph6.4 kmh 30.24 in1024.0 mb 0.00 in0.0 mm 0.00 in0.0 mm 0.06 in1.5 mm
06:05 PM 45.5°F7.5°C 42.8°F6.0°C 88% 3.1 mph WSW5.0 kmh WSW 4.3 mph6.9 kmh 30.24 in1024.0 mb 0.00 in0.0 mm 0.00 in0.0 mm 0.06 in1.5 mm
06:10 PM 45.1°F7.3°C 42.8°F6.0°C 88% 2.6 mph WSW4.2 kmh WSW 4.3 mph6.9 kmh 30.24 in1024.0 mb 0.00 in0.0 mm 0.00 in0.0 mm 0.06 in1.5 mm
06:15 PM 45.1°F7.3°C 42.8°F6.0°C 88% 1.4 mph SW2.3 kmh SW 3.4 mph5.5 kmh 30.24 in1024.0 mb 0.00 in0.0 mm 0.00 in0.0 mm 0.06 in1.5 mm
06:20 PM 44.8°F7.1°C 41.0°F5.0°C 88% 1.2 mph E1.9 kmh E 2.2 mph3.5 kmh 30.24 in1024.0 mb 0.00 in0.0 mm 0.00 in0.0 mm 0.06 in1.5 mm
06:25 PM 44.4°F6.9°C 41.0°F5.0°C 88% 0.9 mph E1.4 kmh E 2.2 mph3.5 kmh 30.24 in1024.0 mb 0.00 in0.0 mm 0.00 in0.0 mm 0.06 in1.5 mm
06:30 PM 44.1°F6.7°C 41.0°F5.0°C 88% 1.1 mph SW1.8 kmh SW 3.1 mph5.0 kmh 30.24 in1024.0 mb 0.00 in0.0 mm 0.00 in0.0 mm 0.06 in1.5 mm
06:35 PM 44.8°F7.1°C 42.8°F6.0°C 89% 2.7 mph WSW4.3 kmh WSW 3.8 mph6.1 kmh 30.24 in1024.0 mb 0.00 in0.0 mm 0.00 in0.0 mm 0.06 in1.5 mm
06:40 PM 44.8°F7.1°C 42.8°F6.0°C 89% 3.1 mph WSW5.0 kmh WSW 3.8 mph6.1 kmh 30.24 in1024.0 mb 0.00 in0.0 mm 0.00 in0.0 mm 0.06 in1.5 mm
06:45 PM 44.1°F6.7°C 41.0°F5.0°C 89% 2.2 mph WSW3.5 kmh WSW 3.6 mph5.8 kmh 30.24 in1024.0 mb 0.00 in0.0 mm 0.00 in0.0 mm 0.06 in1.5 mm
06:50 PM 44.8°F7.1°C 42.8°F6.0°C 89% 2.6 mph WSW4.2 kmh WSW 4.9 mph7.9 kmh 30.24 in1024.0 mb 0.00 in0.0 mm 0.00 in0.0 mm 0.06 in1.5 mm
06:55 PM 44.6°F7.0°C 42.8°F6.0°C 89% 2.9 mph WSW4.7 kmh WSW 4.9 mph7.9 kmh 30.24 in1024.0 mb 0.00 in0.0 mm 0.00 in0.0 mm 0.06 in1.5 mm
07:00 PM 44.4°F6.9°C 42.8°F6.0°C 89% 1.9 mph SW3.1 kmh SW 3.8 mph6.1 kmh 30.24 in1024.0 mb 0.00 in0.0 mm 0.00 in0.0 mm 0.06 in1.5 mm
07:05 PM 44.1°F6.7°C 41.0°F5.0°C 89% 1.3 mph E2.1 kmh E 2.5 mph4.0 kmh 30.24 in1024.0 mb 0.00 in0.0 mm 0.00 in0.0 mm 0.06 in1.5 mm
07:10 PM 43.9°F6.6°C 41.0°F5.0°C 89% 0.7 mph ESE1.1 kmh ESE 2.5 mph4.0 kmh 30.24 in1024.0 mb 0.00 in0.0 mm 0.00 in0.0 mm 0.06 in1.5 mm
07:15 PM 43.5°F6.4°C 41.0°F5.0°C 89% 1.3 mph ESE2.1 kmh ESE 2.5 mph4.0 kmh 30.24 in1024.0 mb 0.00 in0.0 mm 0.00 in0.0 mm 0.06 in1.5 mm
07:20 PM 43.2°F6.2°C 41.0°F5.0°C 89% 1.3 mph E2.1 kmh E 2.7 mph4.3 kmh 30.27 in1025.1 mb 0.00 in0.0 mm 0.00 in0.0 mm 0.06 in1.5 mm
07:25 PM 43.2°F6.2°C 41.0°F5.0°C 89% 0.4 mph ESE0.6 kmh ESE 2.7 mph4.3 kmh 30.27 in1025.1 mb 0.00 in0.0 mm 0.00 in0.0 mm 0.06 in1.5 mm
07:30 PM 43.3°F6.3°C 41.0°F5.0°C 89% 0.5 mph WSW0.8 kmh WSW 1.3 mph2.1 kmh 30.27 in1025.1 mb 0.00 in0.0 mm 0.00 in0.0 mm 0.06 in1.5 mm
07:35 PM 43.3°F6.3°C 41.0°F5.0°C 89% 1.2 mph WSW1.9 kmh WSW 1.6 mph2.6 kmh 30.27 in1025.1 mb 0.00 in0.0 mm 0.00 in0.0 mm 0.06 in1.5 mm
07:40 PM 43.3°F6.3°C 41.0°F5.0°C 89% 1.6 mph SW2.6 kmh SW 2.0 mph3.2 kmh 30.27 in1025.1 mb 0.00 in0.0 mm 0.00 in0.0 mm 0.06 in1.5 mm
07:45 PM 43.5°F6.4°C 41.0°F5.0°C 89% 1.2 mph SSW1.9 kmh SSW 2.2 mph3.5 kmh 30.27 in1025.1 mb 0.00 in0.0 mm 0.00 in0.0 mm 0.06 in1.5 mm
07:50 PM 43.5°F6.4°C 41.0°F5.0°C 89% 1.8 mph SW2.9 kmh SW 3.8 mph6.1 kmh 30.30 in1026.1 mb 0.00 in0.0 mm 0.00 in0.0 mm 0.06 in1.5 mm
07:55 PM 43.3°F6.3°C 41.0°F5.0°C 89% 2.7 mph SW4.3 kmh SW 3.8 mph6.1 kmh 30.30 in1026.1 mb 0.00 in0.0 mm 0.00 in0.0 mm 0.06 in1.5 mm
08:00 PM 43.5°F6.4°C 41.0°F5.0°C 89% 2.4 mph SW3.9 kmh SW 3.8 mph6.1 kmh 30.30 in1026.1 mb 0.00 in0.0 mm 0.00 in0.0 mm 0.06 in1.5 mm
08:05 PM 43.5°F6.4°C 41.0°F5.0°C 90% 1.8 mph SW2.9 kmh SW 2.7 mph4.3 kmh 30.27 in1025.1 mb 0.00 in0.0 mm 0.00 in0.0 mm 0.06 in1.5 mm
08:10 PM 43.5°F6.4°C 41.0°F5.0°C 90% 1.7 mph SW2.7 kmh SW 2.7 mph4.3 kmh 30.27 in1025.1 mb 0.00 in0.0 mm 0.00 in0.0 mm 0.06 in1.5 mm
08:15 PM 43.5°F6.4°C 41.0°F5.0°C 90% 2.1 mph SW3.4 kmh SW 3.6 mph5.8 kmh 30.27 in1025.1 mb 0.00 in0.0 mm 0.00 in0.0 mm 0.06 in1.5 mm
08:20 PM 43.5°F6.4°C 41.0°F5.0°C 90% 2.5 mph WSW4.0 kmh WSW 3.6 mph5.8 kmh 30.27 in1025.1 mb 0.00 in0.0 mm 0.00 in0.0 mm 0.06 in1.5 mm
08:25 PM 43.3°F6.3°C 41.0°F5.0°C 89% 1.7 mph WSW2.7 kmh WSW 2.9 mph4.7 kmh 30.27 in1025.1 mb 0.00 in0.0 mm 0.00 in0.0 mm 0.06 in1.5 mm
08:30 PM 43.5°F6.4°C 41.0°F5.0°C 90% 0.9 mph WSW1.4 kmh WSW 2.2 mph3.5 kmh 30.27 in1025.1 mb 0.00 in0.0 mm 0.00 in0.0 mm 0.06 in1.5 mm
08:35 PM 43.2°F6.2°C 41.0°F5.0°C 89% 0.5 mph E0.8 kmh E 1.3 mph2.1 kmh 30.27 in1025.1 mb 0.00 in0.0 mm 0.00 in0.0 mm 0.06 in1.5 mm
08:40 PM 43.2°F6.2°C 41.0°F5.0°C 89% 1.8 mph WSW2.9 kmh WSW 4.3 mph6.9 kmh 30.27 in1025.1 mb 0.00 in0.0 mm 0.00 in0.0 mm 0.06 in1.5 mm
08:45 PM 43.5°F6.4°C 41.0°F5.0°C 89% 3.3 mph WSW5.3 kmh WSW 4.3 mph6.9 kmh 30.27 in1025.1 mb 0.00 in0.0 mm 0.00 in0.0 mm 0.06 in1.5 mm
08:50 PM 43.2°F6.2°C 41.0°F5.0°C 89% 1.7 mph WSW2.7 kmh WSW 3.8 mph6.1 kmh 30.27 in1025.1 mb 0.00 in0.0 mm 0.00 in0.0 mm 0.06 in1.5 mm
08:55 PM 43.0°F6.1°C 41.0°F5.0°C 89% 0.7 mph WSW1.1 kmh WSW 2.2 mph3.5 kmh 30.27 in1025.1 mb 0.00 in0.0 mm 0.00 in0.0 mm 0.06 in1.5 mm
09:00 PM 42.8°F6.0°C 41.0°F5.0°C 89% 0.6 mph WSW1.0 kmh WSW 2.2 mph3.5 kmh 30.27 in1025.1 mb 0.00 in0.0 mm 0.00 in0.0 mm 0.06 in1.5 mm
09:05 PM 42.6°F5.9°C 41.0°F5.0°C 89% 0.9 mph WSW1.4 kmh WSW 2.9 mph4.7 kmh 30.27 in1025.1 mb 0.00 in0.0 mm 0.00 in0.0 mm 0.06 in1.5 mm
09:10 PM 43.3°F6.3°C 41.0°F5.0°C 89% 3.5 mph WSW5.6 kmh WSW 5.8 mph9.3 kmh 30.27 in1025.1 mb 0.00 in0.0 mm 0.00 in0.0 mm 0.06 in1.5 mm
09:15 PM 43.7°F6.5°C 41.0°F5.0°C 89% 4.4 mph WSW7.1 kmh WSW 5.8 mph9.3 kmh 30.27 in1025.1 mb 0.00 in0.0 mm 0.00 in0.0 mm 0.06 in1.5 mm
09:20 PM 43.7°F6.5°C 41.0°F5.0°C 89% 3.4 mph WSW5.5 kmh WSW 5.6 mph9.0 kmh 30.27 in1025.1 mb 0.00 in0.0 mm 0.00 in0.0 mm 0.06 in1.5 mm
09:25 PM 43.5°F6.4°C 41.0°F5.0°C 89% 1.5 mph SW2.4 kmh SW 3.8 mph6.1 kmh 30.27 in1025.1 mb 0.00 in0.0 mm 0.00 in0.0 mm 0.06 in1.5 mm
09:30 PM 43.0°F6.1°C 41.0°F5.0°C 89% 0.4 mph SSE0.6 kmh SSE 1.3 mph2.1 kmh 30.27 in1025.1 mb 0.00 in0.0 mm 0.00 in0.0 mm 0.06 in1.5 mm
09:35 PM 42.8°F6.0°C 41.0°F5.0°C 89% 0.3 mph SW0.5 kmh SW 1.1 mph1.8 kmh 30.27 in1025.1 mb 0.00 in0.0 mm 0.00 in0.0 mm 0.06 in1.5 mm
09:40 PM 43.2°F6.2°C 41.0°F5.0°C 89% 1.7 mph WSW2.7 kmh WSW 3.6 mph5.8 kmh 30.27 in1025.1 mb 0.00 in0.0 mm 0.00 in0.0 mm 0.06 in1.5 mm
09:45 PM 43.2°F6.2°C 41.0°F5.0°C 89% 1.6 mph WSW2.6 kmh WSW 3.6 mph5.8 kmh 30.27 in1025.1 mb 0.00 in0.0 mm 0.00 in0.0 mm 0.06 in1.5 mm
09:50 PM 43.2°F6.2°C 41.0°F5.0°C 89% 1.0 mph SW1.6 kmh SW 2.5 mph4.0 kmh 30.24 in1024.0 mb 0.00 in0.0 mm 0.00 in0.0 mm 0.06 in1.5 mm
09:55 PM 42.8°F6.0°C 41.0°F5.0°C 89% 0.6 mph S1.0 kmh S 1.3 mph2.1 kmh 30.24 in1024.0 mb 0.00 in0.0 mm 0.00 in0.0 mm 0.06 in1.5 mm
10:00 PM 42.6°F5.9°C 41.0°F5.0°C 89% 0.4 mph SSE0.6 kmh SSE 1.1 mph1.8 kmh 30.24 in1024.0 mb 0.00 in0.0 mm 0.00 in0.0 mm 0.06 in1.5 mm
10:05 PM 42.4°F5.8°C 41.0°F5.0°C 89% 0.3 mph WSW0.5 kmh WSW 0.9 mph1.4 kmh 30.24 in1024.0 mb 0.00 in0.0 mm 0.00 in0.0 mm 0.06 in1.5 mm
10:10 PM 42.3°F5.7°C 39.2°F4.0°C 89% 0.8 mph S1.3 kmh S 1.6 mph2.6 kmh 30.24 in1024.0 mb 0.00 in0.0 mm 0.00 in0.0 mm 0.06 in1.5 mm
10:15 PM 41.9°F5.5°C 39.2°F4.0°C 89% 0.7 mph S1.1 kmh S 1.6 mph2.6 kmh 30.24 in1024.0 mb 0.00 in0.0 mm 0.00 in0.0 mm 0.06 in1.5 mm
10:20 PM 41.7°F5.4°C 39.2°F4.0°C 89% 0.1 mph S0.2 kmh S 0.9 mph1.4 kmh 30.27 in1025.1 mb 0.00 in0.0 mm 0.00 in0.0 mm 0.06 in1.5 mm
10:25 PM 41.4°F5.2°C 39.2°F4.0°C 89% Calm Calm -- 30.27 in1025.1 mb 0.00 in0.0 mm 0.00 in0.0 mm 0.06 in1.5 mm
10:30 PM 41.2°F5.1°C 39.2°F4.0°C 89% Calm Calm -- 30.27 in1025.1 mb 0.00 in0.0 mm 0.00 in0.0 mm 0.06 in1.5 mm
10:35 PM 41.4°F5.2°C 39.2°F4.0°C 89% 0.3 mph E0.5 kmh E 1.1 mph1.8 kmh 30.24 in1024.0 mb 0.00 in0.0 mm 0.00 in0.0 mm 0.06 in1.5 mm
10:40 PM 41.2°F5.1°C 39.2°F4.0°C 89% 0.5 mph E0.8 kmh E 1.1 mph1.8 kmh 30.24 in1024.0 mb 0.00 in0.0 mm 0.00 in0.0 mm 0.06 in1.5 mm
10:45 PM 40.8°F4.9°C 37.4°F3.0°C 89% 0.2 mph E0.3 kmh E 1.1 mph1.8 kmh 30.24 in1024.0 mb 0.00 in0.0 mm 0.00 in0.0 mm 0.06 in1.5 mm
10:50 PM 40.6°F4.8°C 37.4°F3.0°C 89% Calm Calm -- 30.27 in1025.1 mb 0.00 in0.0 mm 0.00 in0.0 mm 0.06 in1.5 mm
10:55 PM 40.3°F4.6°C 37.4°F3.0°C 89% Calm Calm -- 30.27 in1025.1 mb 0.00 in0.0 mm 0.00 in0.0 mm 0.06 in1.5 mm
11:00 PM 39.9°F4.4°C 37.4°F3.0°C 89% Calm Calm -- 30.27 in1025.1 mb 0.00 in0.0 mm 0.00 in0.0 mm 0.06 in1.5 mm
11:05 PM 39.7°F4.3°C 37.4°F3.0°C 89% Calm Calm -- 30.27 in1025.1 mb 0.00 in0.0 mm 0.00 in0.0 mm 0.06 in1.5 mm
11:10 PM 39.9°F4.4°C 37.4°F3.0°C 89% 0.1 mph E0.2 kmh E 1.1 mph1.8 kmh 30.27 in1025.1 mb 0.00 in0.0 mm 0.00 in0.0 mm 0.06 in1.5 mm
11:15 PM 39.9°F4.4°C 37.4°F3.0°C 89% 0.5 mph E0.8 kmh E 1.1 mph1.8 kmh 30.27 in1025.1 mb 0.00 in0.0 mm 0.00 in0.0 mm 0.06 in1.5 mm
11:20 PM 40.3°F4.6°C 37.4°F3.0°C 89% 0.3 mph E0.5 kmh E 1.1 mph1.8 kmh 30.27 in1025.1 mb 0.00 in0.0 mm 0.00 in0.0 mm 0.06 in1.5 mm
11:25 PM 40.1°F4.5°C 37.4°F3.0°C 89% 0.2 mph SE0.3 kmh SE 1.3 mph2.1 kmh 30.27 in1025.1 mb 0.00 in0.0 mm 0.00 in0.0 mm 0.06 in1.5 mm
11:30 PM 40.6°F4.8°C 37.4°F3.0°C 90% 0.4 mph SSE0.6 kmh SSE 1.3 mph2.1 kmh 30.27 in1025.1 mb 0.00 in0.0 mm 0.00 in0.0 mm 0.06 in1.5 mm
11:35 PM 40.3°F4.6°C 37.4°F3.0°C 90% 0.4 mph SE0.6 kmh SE 1.1 mph1.8 kmh 30.27 in1025.1 mb 0.00 in0.0 mm 0.00 in0.0 mm 0.06 in1.5 mm
11:40 PM 39.9°F4.4°C 37.4°F3.0°C 90% 0.3 mph SE0.5 kmh SE 0.9 mph1.4 kmh 30.27 in1025.1 mb 0.00 in0.0 mm 0.00 in0.0 mm 0.06 in1.5 mm
11:45 PM 39.6°F4.2°C 37.4°F3.0°C 89% 0.2 mph S0.3 kmh S 0.9 mph1.4 kmh 30.27 in1025.1 mb 0.00 in0.0 mm 0.00 in0.0 mm 0.06 in1.5 mm
11:50 PM 39.4°F4.1°C 37.4°F3.0°C 89% 0.1 mph SW0.2 kmh SW 1.3 mph2.1 kmh 30.27 in1025.1 mb 0.00 in0.0 mm 0.00 in0.0 mm 0.06 in1.5 mm
11:55 PM 39.6°F4.2°C 37.4°F3.0°C 89% 0.8 mph WSW1.3 kmh WSW 2.2 mph3.5 kmh 30.27 in1025.1 mb 0.00 in0.0 mm 0.00 in0.0 mm 0.06 in1.5 mm